Brendan's ATC Tracking Thread (Closed)

Hello this will be my ATC Tracking Thread and where you can see where i controlling at. I’m open to feedback and stuff i can improve on.

Happy Landing’s

4 Likes

Hello i’ll be opening at KPHL for a little some come by and fly out.

Metar: 2018/07/09 20:54
KPHL 092054Z 22008KT 10SM FEW300 30/13 A3010 RMK AO2 SLP192 T03000128 57022 $

Runways in use are 27R and 27L

Happy Landings

I’m now closed hope to see you guys later tonight…

Hope you will get some good feedback. Don’t forget to change your title to (closed).

oh i forgot to save the changes lol

Hello guys open at KPHL

Metar: 2018/07/10 12:54
KPHL 101254Z 26004KT 10SM CLR 26/16 A3000 RMK AO2 SLP159 T02560161

Departing 09L and Land 09R

Come out and fly out

Happy Landings

something popped up and i’ll be opening again in a little

Open at LGAV

taking off 21L and landing 21R

Metar: 2018/07/20 03:50
LGAV 200350Z VRB03KT 9999 FEW050 25/15 Q1009 NOSIG

Coming now as N83AF!

ok see u there hope i do fine

1 Like

Now closed thanks for those who flied out and gave great feedback

Hello guys I’m open at KPHX

Metar: KPHX 211751Z 30007KT 10SM FEW050 FEW110 SCT250 30/19 A2999 RMK AO2 SLP134 60001 T03000194 10311 20261 50006

Runways active are 26, 25R, and 25L

1 Like

after 2 great hours KPHX is closed :) I’ll be opening gain later on. Thanks for those who flew out

Hello ATC is open at KSEA Runways in use are 34R,34C,34L

Metar: KSEA 212153Z 29008KT 10SM FEW030 FEW200 24/08 A3016 RMK AO2 SLP218 T02440078

Have fun

Now closed thanks for those who flied out :)

open now at KSAN

Metar: KSAN 220051Z 28008KT 10SM FEW018 SCT050 SCT220 25/18 A2998 RMK AO2 SLP151 T02500178

Runway in use is 27

Have fun

now closed thanks and hope to see u again taking off

Now open at KBWI. come and fly out and give some feedback if you wish.

Metar: KBWI 230054Z 30007KT 10SM FEW065 24/16 A2985 RMK AO2 SLP108 T02390161

Closed thanks for flying

This topic was automatically closed 90 days after the last reply. New replies are no longer allowed.